createdAt,value
2022-11-26T00:00:14.903Z,100.00
2022-11-26T00:09:00.727Z,100.00
2022-11-26T00:17:24.161Z,100.00
2022-11-26T00:25:56.805Z,100.00
2022-11-26T00:34:19.785Z,100.00
2022-11-26T00:42:42.845Z,100.00
2022-11-26T00:51:06.250Z,100.00
2022-11-26T00:59:29.274Z,100.00
2022-11-26T01:07:53.448Z,100.00
2022-11-26T01:16:23.717Z,100.00
2022-11-26T01:24:46.796Z,100.00
2022-11-26T01:33:10.380Z,100.00
2022-11-26T01:41:56.330Z,100.00
2022-11-26T01:50:31.468Z,100.00
2022-11-26T01:59:08.903Z,100.00
2022-11-26T02:07:32.240Z,100.00
2022-11-26T02:16:04.147Z,100.00
2022-11-26T02:24:42.525Z,100.00
2022-11-26T02:33:12.733Z,100.00
2022-11-26T02:41:43.253Z,100.00
2022-11-26T02:50:13.179Z,100.00
2022-11-26T02:58:36.879Z,100.00
2022-11-26T03:07:03.604Z,100.00
2022-11-26T03:15:26.720Z,100.00
2022-11-26T03:23:50.255Z,100.00
2022-11-26T03:32:13.258Z,100.00
2022-11-26T03:40:36.932Z,100.00
2022-11-26T03:48:59.947Z,100.00
2022-11-26T03:57:23.264Z,100.00
2022-11-26T04:05:46.184Z,100.00
2022-11-26T04:14:09.200Z,99.98
2022-11-26T04:22:32.141Z,100.00
2022-11-26T04:30:55.271Z,100.00
2022-11-26T04:39:18.283Z,100.00
2022-11-26T04:47:43.139Z,100.00
2022-11-26T04:56:06.761Z,100.00
2022-11-26T05:04:30.254Z,100.00
2022-11-26T05:12:53.193Z,100.00
2022-11-26T05:21:16.081Z,100.00
2022-11-26T05:29:38.985Z,100.00
2022-11-26T05:38:01.969Z,100.00
2022-11-26T05:46:27.936Z,100.00
2022-11-26T05:54:51.021Z,100.00
2022-11-26T06:03:19.599Z,100.00
2022-11-26T06:11:43.228Z,100.00
2022-11-26T06:20:06.963Z,100.00
2022-11-26T06:28:29.839Z,100.00
2022-11-26T06:36:52.911Z,100.00
2022-11-26T06:45:16.796Z,100.00
2022-11-26T06:53:39.781Z,100.00
2022-11-26T07:02:02.964Z,100.00
2022-11-26T07:10:26.386Z,100.00
2022-11-26T07:18:56.398Z,100.00
2022-11-26T07:27:22.337Z,100.00
2022-11-26T07:35:45.420Z,100.00
2022-11-26T07:44:12.758Z,100.00
2022-11-26T07:52:35.848Z,100.00
2022-11-26T08:01:07.027Z,100.00
2022-11-26T08:09:30.404Z,99.89
2022-11-26T08:17:57.469Z,99.98
2022-11-26T08:26:27.467Z,99.70
2022-11-26T08:34:54.072Z,99.72
2022-11-26T08:43:17.114Z,99.77
2022-11-26T08:51:40.454Z,99.65
2022-11-26T09:00:05.474Z,99.34
2022-11-26T09:08:28.559Z,99.60
2022-11-26T09:16:52.348Z,99.37
2022-11-26T09:25:15.383Z,99.14
2022-11-26T09:33:38.379Z,99.51
2022-11-26T09:42:06.462Z,99.29
2022-11-26T09:50:33.366Z,99.34
2022-11-26T09:59:01.700Z,99.63
2022-11-26T10:07:52.177Z,99.41
2022-11-26T10:16:29.855Z,99.51
2022-11-26T10:24:53.600Z,99.35
2022-11-26T10:33:20.634Z,99.05
2022-11-26T10:41:44.169Z,97.86
2022-11-26T10:50:25.141Z,97.65
2022-11-26T10:58:53.061Z,98.27
2022-11-26T11:07:38.113Z,98.23
2022-11-26T11:16:03.021Z,98.87
2022-11-26T11:24:28.905Z,99.35
2022-11-26T11:32:56.810Z,99.44
2022-11-26T11:41:48.619Z,99.81
2022-11-26T11:50:29.423Z,99.72
2022-11-26T11:59:21.513Z,99.77
2022-11-26T12:07:57.780Z,99.87
2022-11-26T12:16:25.022Z,99.97
2022-11-26T12:25:07.311Z,99.97
2022-11-26T12:33:41.532Z,100.00
2022-11-26T12:42:14.833Z,100.00
2022-11-26T12:50:46.073Z,100.00
2022-11-26T12:59:29.651Z,100.00
2022-11-26T13:08:11.626Z,100.00
2022-11-26T13:16:39.194Z,100.00
2022-11-26T13:25:26.980Z,100.00
2022-11-26T13:34:28.397Z,100.00
2022-11-26T13:43:15.323Z,100.00
2022-11-26T13:51:54.493Z,100.00
2022-11-26T14:00:25.619Z,100.00
2022-11-26T14:08:51.644Z,100.00
2022-11-26T14:17:42.410Z,100.00
2022-11-26T14:26:07.663Z,100.00
2022-11-26T14:34:42.514Z,100.00
2022-11-26T14:43:07.720Z,100.00
2022-11-26T14:51:32.668Z,100.00
2022-11-26T15:00:02.080Z,100.00
2022-11-26T15:08:26.836Z,100.00
2022-11-26T15:16:56.665Z,100.00
2022-11-26T15:25:24.363Z,100.00
2022-11-26T15:33:47.780Z,100.00
2022-11-26T15:42:32.440Z,100.00
2022-11-26T15:50:57.894Z,100.00
2022-11-26T15:59:22.641Z,100.00
2022-11-26T16:08:01.044Z,100.00
2022-11-26T16:16:26.407Z,100.00
2022-11-26T16:25:16.330Z,100.00
2022-11-26T16:33:39.607Z,100.00
2022-11-26T16:42:02.761Z,100.00
2022-11-26T16:50:29.475Z,100.00
2022-11-26T16:58:58.042Z,100.00
2022-11-26T17:07:26.364Z,100.00
2022-11-26T17:15:51.669Z,100.00
2022-11-26T17:24:17.671Z,100.00
2022-11-26T17:32:44.172Z,100.00
2022-11-26T17:41:07.520Z,100.00
2022-11-26T17:49:30.389Z,100.00
2022-11-26T17:57:55.317Z,100.00
2022-11-26T18:06:28.173Z,100.00
2022-11-26T18:14:51.430Z,100.00
2022-11-26T18:23:19.331Z,100.00
2022-11-26T18:31:48.570Z,100.00
2022-11-26T18:40:19.785Z,100.00
2022-11-26T18:48:49.876Z,100.00
2022-11-26T18:57:13.580Z,100.00
2022-11-26T19:05:40.375Z,100.00
2022-11-26T19:14:18.029Z,100.00
2022-11-26T19:22:46.433Z,100.00
2022-11-26T19:31:12.307Z,100.00
2022-11-26T19:39:35.464Z,100.00
2022-11-26T19:47:58.469Z,100.00
2022-11-26T19:56:29.909Z,100.00
2022-11-26T20:04:53.792Z,100.00
2022-11-26T20:13:17.826Z,100.00
2022-11-26T20:21:40.924Z,100.00
2022-11-26T20:30:04.984Z,100.00
2022-11-26T20:38:27.963Z,100.00
2022-11-26T20:46:50.984Z,100.00
2022-11-26T20:55:13.990Z,100.00
2022-11-26T21:03:36.885Z,100.00
2022-11-26T21:11:59.939Z,100.00
2022-11-26T21:20:22.983Z,100.00
2022-11-26T21:28:53.900Z,100.00
2022-11-26T21:37:16.997Z,100.00
2022-11-26T21:45:40.049Z,100.00
2022-11-26T21:54:03.450Z,100.00
2022-11-26T22:02:26.356Z,100.00
2022-11-26T22:10:49.559Z,100.00
2022-11-26T22:19:13.167Z,100.00
2022-11-26T22:27:36.320Z,100.00
2022-11-26T22:36:01.200Z,100.00
2022-11-26T22:44:24.164Z,100.00
